Chacon, NM (87713)

11:31 PM MDT on May 24, 2015 (GMT -0600)
Sipapu Ski Resort | | Change Station
CLOSE
Current Station
Personal Weather Station
Location: Vadito, NM
Elevation: 8186 ft
Nearby Weather Stations

Elev 8186 ft 36.15 °N, 105.55 °W | Updated 4 minutes ago

Clear
Clear
38.2 °F
Feels Like 38 °F
N
0.0
Wind Variable Wind from ESE
Gusts 0.0 mph

Today
High -- | Low -- °F
--% Chance of Precip.
Yesterday
High -- | Low -- °F
Precip. -- in
5:49 AM 8:07 PM
Waxing Crescent, 45% visible
Pressure 30.06 in
Visibility 10.0 miles
Clouds Scattered Clouds 6000 ft
Scattered Clouds 7000 ft
Windchill 38 °F
Dew Point 36 °F
Humidity 90%
Rainfall 0.04 in
Snow Depth Not available.
UV 0 out of 12
Pollen 4.60 out of 12
Air Quality Not available.
Flu Activity Local Activity
METAR KAXX 250515Z AUTO 00000KT 10SM SCT060 SCT070 04/01 A3006 RMK AO2 T00370007

More Conditions Fewer Conditions

Pressure 30.06 in
Visibility 10.0 miles
Clouds Scattered Clouds 6000 ft
Scattered Clouds 7000 ft
Windchill 38 °F
Dew Point 36 °F
Humidity 90%
Rainfall 0.04 in
Snow Depth Not available.
UV 0 out of 12
Pollen 4.60 out of 12
Air Quality Not available.
Flu Activity Local Activity
METAR KAXX 250515Z AUTO 00000KT 10SM SCT060 SCT070 04/01 A3006 RMK AO2 T00370007

More Conditions Fewer Conditions

10-Day Weather Forecast

Almanac

Astronomy

May. 24, 2015 Rise Set
Actual Time
Civil Twilight
Nautical Twilight
Astronomical Twilight
Moon
Length of Visible Light
Length of Day
Tomorrow will be .
, % of the Moon is Illuminated

Today's Extremes

State Highs State Lows

Community

WunderPhotos

Upload Photos

1,823,956 photos uploaded!

WunderBlogs® & News

Nearby

Air Quality

  Air Quality AQ Index Pollutant
Not available.

Snow Depth

Station Depth Elevation

Earthquake Activity

City Distance Mag. Time & Date
Minimum magnitude displayed is 2.5.

Coastal Water Temperatures

Place Temperature

Stations

Nearby Weather Stations

Station Location Temp. Windchill Dew Point Humidity Wind Precip. Elev Updated Type